• Join FlightAware (Why Join?)
  • Login
  • US Flag 
08:05PM EDT


 

Airport Tracker/Info


-or-


 

Live Flight TrackerFlight Track Log ✈ N680AN ✈ 27-Apr-2013 ✈ KMIA - TTPP / POS

Flight Track Log - Related Links

Times and Time Zones

All times are in EDT time to prevent confusion due to time zone crossing. See the N680AN flight status page for this flight to view local times or setup timezone preferences in your user account.

Time Position Orientation Groundspeed Altitude Reporting Facility
EDT Latitude Longitude Course Direction KTS MPH feet Rate Location/Type
10:06AM 25.7961 -80.2697 104° East 157 181 1,000  Level Miami Center
10:07AM 25.7764 -80.2186 113° Southeast 209 241 2,800 1,500 Climbing Miami Center
10:07AM 25.7706 -80.1975 107° East 227 261 3,100 2,820 Climbing Miami Center
10:08AM 25.6770 -79.8798 104° East  Level FlightAware Approximate
10:08AM 25.7467 -80.1483 118° Southeast 257 296 5,700  Level Miami Center
10:08AM 25.7450 -80.1300 96° East 260 299 6,200 2,460 Climbing Miami Center
10:09AM 25.6441 -79.7431 105° East  Level FlightAware Approximate
10:09AM 25.7258 -80.0511 105° East 260 299 8,900  Level Miami Center
10:10AM 25.6229 -79.6049 104° East  Level FlightAware Approximate
10:10AM 25.7089 -79.9653 102° East 265 305 11,400  Level Miami Center
10:11AM 25.5913 -79.4679 104° East  Level FlightAware Approximate
10:11AM 25.6900 -79.8725 103° East 283 326 13,800  Level Miami Center
10:12AM 25.6689 -79.7822 105° East 290 334 16,500 2,100 Climbing Miami Center
10:13AM 25.6478 -79.6825 103° East 312 359 18,100 1,380 Climbing Miami Center
10:14AM 25.6206 -79.5692 105° East 342 394 19,300 1,560 Climbing Miami Center
10:15AM 25.5936 -79.4486 104° East 379 436 21,300 1,920 Climbing Miami Center
10:16AM 25.5686 -79.3236 102° East 399 459 23,200 1,740 Climbing Miami Center
10:17AM 25.5142 -79.2053 117° Southeast 412 474 24,800 1,620 Climbing Miami Center
10:18AM 25.4533 -79.0819 119° Southeast 425 489 26,500 1,560 Climbing Miami Center
10:19AM 25.3944 -78.9589 118° Southeast 444 511 28,000 1,440 Climbing Miami Center
10:20AM 25.3336 -78.8361 119° Southeast 455 524 29,400 1,260 Climbing Miami Center
10:21AM 25.2600 -78.7108 123° Southeast 470 541 30,600 1,320 Climbing Miami Center
10:22AM 25.1714 -78.5994 131° Southeast 483 556 32,100 1,440 Climbing Miami Center
10:23AM 25.0767 -78.4878 133° Southeast 483 556 33,500 1,380 Climbing Miami Center
10:24AM 24.9858 -78.3811 133° Southeast 483 556 34,900 1,320 Climbing Miami Center
10:25AM 24.8950 -78.2725 133° Southeast 478 550 36,200 1,020 Climbing Miami Center
10:26AM 24.8019 -78.1639 133° Southeast 478 550 37,000 360 Climbing Miami Center
10:27AM 24.7108 -78.0531 132° Southeast 478 550 37,000  Level Miami Center
10:28AM 24.6197 -77.9469 133° Southeast 478 550 37,000  Level Miami Center
10:29AM 24.5283 -77.8389 133° Southeast 478 550 37,000  Level Miami Center
10:30AM 24.4372 -77.7308 133° Southeast 478 550 37,000  Level Miami Center
10:31AM 24.3458 -77.6231 133° Southeast 478 550 37,000  Level Miami Center
10:32AM 24.2544 -77.5153 133° Southeast 478 550 37,000  Level Miami Center
10:33AM 24.1669 -77.4147 134° Southeast 478 550 37,000  Level Miami Center
10:34AM 24.0753 -77.3072 133° Southeast 473 544 37,000  Level Miami Center
10:35AM 23.9858 -77.2022 133° Southeast 473 544 37,000  Level Miami Center
10:36AM 23.8939 -77.0975 134° Southeast 473 544 37,000  Level Miami Center
10:37AM 23.7981 -76.9839 133° Southeast 473 544 37,000  Level Miami Center
10:38AM 23.7061 -76.8792 134° Southeast 473 544 37,000  Level Miami Center
10:39AM 23.6142 -76.7750 134° Southeast 473 544 37,000  Level Miami Center
10:40AM 23.5242 -76.6708 133° Southeast 473 544 37,000  Level Miami Center
10:41AM 23.4319 -76.5644 133° Southeast 473 544 37,000  Level Miami Center
10:42AM 23.3419 -76.4628 134° Southeast 473 544 37,000  Level Miami Center
10:43AM 23.2497 -76.3569 133° Southeast 473 544 37,000  Level Miami Center
10:44AM 23.1594 -76.2533 133° Southeast 473 544 37,000  Level Miami Center
10:45AM 23.0669 -76.1478 134° Southeast 473 544 37,000  Level Miami Center
10:46AM 22.9725 -76.0419 134° Southeast 473 544 37,000  Level Miami Center
10:47AM 22.8819 -75.9367 133° Southeast 473 544 37,000  Level Miami Center
10:48AM 22.7894 -75.8336 134° Southeast 473 544 37,000  Level Miami Center
10:49AM 22.7008 -75.7264 132° Southeast 473 544 37,000  Level Miami Center
10:50AM 22.6081 -75.6214 134° Southeast 473 544 37,000  Level Miami Center
10:51AM 22.5175 -75.5167 133° Southeast 473 544 37,000  Level Miami Center
10:52AM 22.4244 -75.4119 134° Southeast 473 544 37,000  Level Miami Center
10:53AM 22.3317 -75.3075 134° Southeast 478 550 37,000  Level Miami Center
10:54AM 22.2386 -75.2031 134° Southeast 473 544 37,000  Level Miami Center
10:55AM 22.1456 -75.0967 133° Southeast 478 550 37,000  Level Miami Center
10:56AM 22.0522 -74.9925 134° Southeast 478 550 37,000  Level Miami Center
10:57AM 21.9611 -74.8819 132° Southeast 484 557 37,000  Level Miami Center
10:58AM 21.8739 -74.7714 130° Southeast 484 557 37,000  Level Miami Center
10:59AM 21.7825 -74.6611 132° Southeast 484 557 37,000  Level Miami Center
11:00AM 21.7019 -74.5664 132° Southeast 484 557 37,000  Level Miami Center
11:01AM 21.6103 -74.4539 131° Southeast 484 557 37,000  Level Miami Center
11:02AM 21.5208 -74.3394 130° Southeast 490 564 37,000  Level Miami Center
11:03AM 21.4292 -74.2319 132° Southeast 490 564 37,000  Level Miami Center
11:04AM 21.3375 -74.1203 131° Southeast 490 564 37,000  Level Miami Center
11:05AM 21.2458 -74.0108 132° Southeast 490 564 37,000  Level Miami Center
11:06AM 21.1517 -73.8969 132° Southeast 496 571 37,000  Level Miami Center
11:07AM 21.0597 -73.7856 131° Southeast 496 571 37,000  Level Miami Center
11:08AM 20.9636 -73.6744 133° Southeast 501 577 37,000  Level Miami Center
11:09AM 20.8717 -73.5633 132° Southeast 501 577 37,000  Level Miami Center
11:10AM 20.7794 -73.4525 132° Southeast 506 582 37,000  Level Miami Center
11:11AM 20.6872 -73.3417 132° Southeast 506 582 37,000  Level Miami Center
11:12AM 20.5950 -73.2289 131° Southeast 506 582 37,000  Level Miami Center
11:13AM 20.5025 -73.1183 132° Southeast 506 582 37,000  Level Miami Center
11:14AM 20.4103 -73.0103 132° Southeast 506 582 37,000  Level Miami Center
11:15AM 20.3281 -72.8953 127° Southeast 506 582 37,000  Level Miami Center
11:16AM 20.2397 -72.7786 129° Southeast 506 582 37,000  Level Miami Center
11:18AM 20.1317 -72.6390 128° Southeast  Level FlightAware Approximate
11:25AM 19.5919 -71.8989 128° Southeast  Level FlightAware Approximate
11:26AM 19.5145 -71.7936 128° Southeast  Level FlightAware Approximate
11:27AM 19.4371 -71.6884 128° Southeast  Level FlightAware Approximate
11:28AM 19.3588 -71.5840 128° Southeast  Level FlightAware Approximate
11:29AM 19.2805 -71.4796 128° Southeast  Level FlightAware Approximate
11:30AM 19.2021 -71.3754 129° Southeast  Level FlightAware Approximate
11:31AM 19.1236 -71.2713 129° Southeast  Level FlightAware Approximate
11:32AM 19.0451 -71.1673 129° Southeast  Level FlightAware Approximate
11:33AM 18.9665 -71.0633 129° Southeast  Level FlightAware Approximate
11:34AM 18.8878 -70.9595 129° Southeast  Level FlightAware Approximate
11:35AM 18.8091 -70.8558 129° Southeast  Level FlightAware Approximate
11:36AM 18.7304 -70.7521 129° Southeast  Level FlightAware Approximate
11:37AM 18.6515 -70.6486 129° Southeast  Level FlightAware Approximate
11:38AM 18.5727 -70.5451 129° Southeast  Level FlightAware Approximate
11:39AM 18.4939 -70.4417 128° Southeast  Level FlightAware Approximate
11:40AM 18.4169 -70.3367 128° Southeast  Level FlightAware Approximate
11:41AM 18.3398 -70.2319 128° Southeast  Level FlightAware Approximate
11:42AM 18.2627 -70.1272 128° Southeast  Level FlightAware Approximate
11:43AM 18.1856 -70.0226 128° Southeast  Level FlightAware Approximate
11:44AM 18.1083 -69.9180 128° Southeast  Level FlightAware Approximate
11:45AM 18.0310 -69.8136 129° Southeast  Level FlightAware Approximate
11:46AM 17.9515 -69.7111 129° Southeast  Level FlightAware Approximate
11:47AM 17.8720 -69.6086 129° Southeast  Level FlightAware Approximate
11:48AM 17.7924 -69.5062 129° Southeast  Level FlightAware Approximate
11:49AM 17.7128 -69.4039 129° Southeast  Level FlightAware Approximate
11:50AM 17.6331 -69.3017 129° Southeast  Level FlightAware Approximate
11:51AM 17.5534 -69.1995 129° Southeast  Level FlightAware Approximate
11:52AM 17.4741 -69.0971 129° Southeast  Level FlightAware Approximate
11:53AM 17.3947 -68.9948 129° Southeast  Level FlightAware Approximate
11:54AM 17.3153 -68.8925 129° Southeast  Level FlightAware Approximate
11:55AM 17.2358 -68.7904 129° Southeast  Level FlightAware Approximate
11:55AM 16.8667 -68.3333 129° Southeast 490 564 37,000  Level San Juan Center
11:56AM 17.1562 -68.6883 129° Southeast  Level FlightAware Approximate
11:56AM 16.7833 -68.2167 127° Southeast 490 564 37,000  Level San Juan Center
11:57AM 17.0766 -68.5864 129° Southeast  Level FlightAware Approximate
11:57AM 16.7000 -68.1000 127° Southeast 490 564 37,000  Level San Juan Center
11:58AM 16.9970 -68.4845 129° Southeast  Level FlightAware Approximate
11:58AM 16.6167 -68.0000 131° Southeast 490 564 37,000  Level San Juan Center
11:59AM 16.9173 -68.3827 129° Southeast  Level FlightAware Approximate
11:59AM 16.5167 -67.8833 132° Southeast 480 552 37,000  Level San Juan Center
12:00PM 16.8376 -68.2810 129° Southeast  Level FlightAware Approximate
12:00PM 16.4500 -67.7833 125° Southeast 460 529 37,000  Level San Juan Center
12:01PM 16.3667 -67.6667 127° Southeast 500 575 37,000  Level San Juan Center
12:02PM 16.2667 -67.5500 132° Southeast 500 575 37,000  Level San Juan Center
12:03PM 16.1833 -67.4333 127° Southeast 490 564 37,000  Level San Juan Center
12:04PM 16.1000 -67.3333 131° Southeast 490 564 37,000  Level San Juan Center
12:05PM 16.0167 -67.2167 127° Southeast 480 552 37,000  Level San Juan Center
12:06PM 15.9333 -67.1167 131° Southeast 480 552 37,000  Level San Juan Center
12:07PM 15.8500 -67.0167 131° Southeast 480 552 37,000  Level San Juan Center
12:08PM 15.7667 -66.9000 127° Southeast 480 552 37,000  Level San Juan Center
12:09PM 15.6833 -66.8000 131° Southeast 480 552 37,000  Level San Juan Center
12:10PM 15.6000 -66.6833 127° Southeast 470 541 37,000  Level San Juan Center
12:11PM 15.5167 -66.5833 131° Southeast 480 552 37,000  Level San Juan Center
12:12PM 15.4167 -66.4833 136° Southeast 480 552 37,000  Level San Juan Center
12:13PM 15.3333 -66.3833 131° Southeast 480 552 37,000  Level San Juan Center
12:15PM 15.2301 -66.2703 133° Southeast  Level FlightAware Approximate
12:22PM 14.6268 -65.6134 133° Southeast  Level FlightAware Approximate
12:23PM 14.5405 -65.5198 134° Southeast  Level FlightAware Approximate
12:24PM 14.4541 -65.4264 134° Southeast  Level FlightAware Approximate
12:25PM 14.3677 -65.3329 134° Southeast  Level FlightAware Approximate
12:26PM 14.2813 -65.2396 134° Southeast  Level FlightAware Approximate
12:27PM 14.1948 -65.1463 134° Southeast  Level FlightAware Approximate
12:28PM 14.1083 -65.0531 134° Southeast  Level FlightAware Approximate
12:29PM 14.0217 -64.9600 134° Southeast  Level FlightAware Approximate
12:30PM 13.9351 -64.8670 134° Southeast  Level FlightAware Approximate
12:31PM 13.8485 -64.7740 134° Southeast  Level FlightAware Approximate
12:32PM 13.7619 -64.6811 134° Southeast  Level FlightAware Approximate
12:33PM 13.6752 -64.5882 134° Southeast  Level FlightAware Approximate
12:34PM 13.5884 -64.4955 134° Southeast  Level FlightAware Approximate
12:35PM 13.5017 -64.4028 134° Southeast  Level FlightAware Approximate
12:36PM 13.4149 -64.3101 134° Southeast  Level FlightAware Approximate
12:37PM 13.3280 -64.2176 134° Southeast  Level FlightAware Approximate
12:38PM 13.2412 -64.1250 134° Southeast  Level FlightAware Approximate
12:39PM 13.1543 -64.0326 134° Southeast  Level FlightAware Approximate
12:40PM 13.0674 -63.9402 134° Southeast  Level FlightAware Approximate
12:41PM 12.9804 -63.8479 134° Southeast  Level FlightAware Approximate
12:42PM 12.8934 -63.7557 134° Southeast  Level FlightAware Approximate
12:43PM 12.8064 -63.6635 134° Southeast  Level FlightAware Approximate
12:44PM 12.7193 -63.5714 134° Southeast  Level FlightAware Approximate
12:45PM 12.6318 -63.4794 134° Southeast  Level FlightAware Approximate
12:46PM 12.5443 -63.3878 134° Southeast  Level FlightAware Approximate
12:47PM 12.4568 -63.2963 134° Southeast  Level FlightAware Approximate
12:48PM 12.3692 -63.2048 134° Southeast  Level FlightAware Approximate
12:49PM 12.2832 -63.1118 132° Southeast  Level FlightAware Approximate
12:50PM 12.1998 -63.0164 136° Southeast  Level FlightAware Approximate
12:51PM 12.1103 -62.9269 136° Southeast  Level FlightAware Approximate
12:52PM 12.0209 -62.8375 136° Southeast  Level FlightAware Approximate
12:53PM 11.9402 -62.7402 136° Southeast  Level FlightAware Approximate
12:54PM 11.8508 -62.6507 136° Southeast  Level FlightAware Approximate
12:55PM 11.7614 -62.5613 136° Southeast  Level FlightAware Approximate
12:56PM 11.6720 -62.4720 136° Southeast  Level FlightAware Approximate
12:57PM 11.5826 -62.3826 136° Southeast  Level FlightAware Approximate
12:58PM 11.4936 -62.2929 133° Southeast  Level FlightAware Approximate
12:59PM 11.4083 -62.1995 133° Southeast  Level FlightAware Approximate
01:00PM 11.3231 -62.1061 133° Southeast  Level FlightAware Approximate
01:01PM 11.2378 -62.0127 133° Southeast  Level FlightAware Approximate
01:02PM 11.1525 -61.9194 133° Southeast  Level FlightAware Approximate
01:03PM 11.0634 -61.8300 136° Southeast  Level FlightAware Approximate
01:04PM 10.9741 -61.7407 136° Southeast  Level FlightAware Approximate
01:05PM 10.8848 -61.6515 136° Southeast  Level FlightAware Approximate
01:06PM 10.8015 -61.5564 132° Southeast  Level FlightAware Approximate
01:07PM 10.7081 -61.4727 144° Southeast  Level FlightAware Approximate
01:08PM 10.6325 -61.3825 135° Southeast  Level FlightAware Approximate
01:09PM 10.6000 -61.3500 135° Southeast  Level FlightAware Approximate
01:10PM 10.5954 -61.3372 135° Southeast  Level Estimated
01:11PM 10.5954 -61.3372 135° Southeast  Level Estimated
01:12PM 10.5954 -61.3372 135° Southeast  Level Estimated
01:13PM 10.5954 -61.3372 135° Southeast  Level Estimated
01:14PM 10.5954 -61.3372 135° Southeast  Level Estimated
01:15PM 10.5954 -61.3372 135° Southeast  Level Estimated
01:16PM 10.5954 -61.3372 135° Southeast  Level Estimated
01:17PM 10.5954 -61.3372 135° Southeast  Level Estimated
01:18PM 10.5954 -61.3372 135° Southeast  Level Estimated
01:19PM 10.5954 -61.3372 135° Southeast  Level Estimated
01:20PM 10.5954 -61.3372 135° Southeast  Level Estimated
01:21PM 10.5954 -61.3372 135° Southeast  Level Estimated
01:22PM 10.5954 -61.3372 135° Southeast  Level Estimated
01:23PM 10.5954 -61.3372 135° Southeast  Level Estimated
01:24PM 10.5954 -61.3372 135° Southeast  Level Estimated
01:25PM 10.5954 -61.3372 135° Southeast  Level Estimated